createdAt,value
2018-12-21T00:04:54.094Z,10.55
2018-12-21T00:09:57.390Z,10.59
2018-12-21T00:15:00.767Z,10.64
2018-12-21T00:20:04.951Z,10.62
2018-12-21T00:25:08.871Z,10.62
2018-12-21T00:35:41.342Z,10.76
2018-12-21T00:40:50.584Z,10.76
2018-12-21T00:51:20.135Z,10.81
2018-12-21T00:56:23.461Z,10.71
2018-12-21T01:01:28.838Z,10.64
2018-12-21T01:06:32.354Z,10.56
2018-12-21T01:11:35.827Z,10.12
2018-12-21T01:22:04.806Z,10.17
2018-12-21T01:27:07.921Z,10.13
2018-12-21T01:32:11.140Z,10.08
2018-12-21T01:37:14.245Z,10.06
2018-12-21T01:42:17.243Z,10.09
2018-12-21T01:47:20.261Z,10.07
2018-12-21T01:52:23.228Z,10.00
2018-12-21T01:57:26.189Z,9.93
2018-12-21T02:02:29.273Z,9.95
2018-12-21T02:07:32.368Z,9.90
2018-12-21T02:12:35.547Z,9.81
2018-12-21T02:17:38.512Z,9.82
2018-12-21T02:22:41.464Z,9.82
2018-12-21T02:27:44.442Z,9.82
2018-12-21T02:32:47.520Z,9.78
2018-12-21T02:37:51.004Z,9.80
2018-12-21T02:42:54.095Z,9.80
2018-12-21T02:47:57.073Z,9.82
2018-12-21T02:53:00.126Z,9.78
2018-12-21T02:58:03.422Z,9.78
2018-12-21T03:03:06.502Z,9.82
2018-12-21T03:13:27.687Z,9.74
2018-12-21T03:18:31.294Z,9.81
2018-12-21T03:23:35.287Z,9.83
2018-12-21T03:34:03.841Z,10.00
2018-12-21T03:39:08.185Z,10.10
2018-12-21T03:44:11.225Z,10.07
2018-12-21T03:56:58.510Z,9.95
2018-12-21T04:02:01.553Z,10.16
2018-12-21T04:07:04.729Z,10.21
2018-12-21T04:17:22.687Z,10.27
2018-12-21T04:22:34.005Z,10.25
2018-12-21T04:27:30.844Z,10.18
2018-12-21T04:32:33.810Z,10.12
2018-12-21T04:37:36.776Z,10.06
2018-12-21T04:42:39.740Z,10.05
2018-12-21T04:47:42.680Z,10.09
2018-12-21T04:58:04.142Z,10.07
2018-12-21T05:03:07.310Z,10.13
2018-12-21T05:08:10.957Z,10.14
2018-12-21T05:13:14.578Z,10.14
2018-12-21T05:18:18.390Z,10.12
2018-12-21T05:23:22.102Z,10.14
2018-12-21T05:28:25.503Z,10.14
2018-12-21T05:33:28.970Z,10.21
2018-12-21T05:38:32.292Z,10.17
2018-12-21T05:43:36.354Z,10.14
2018-12-21T05:49:00.699Z,10.13
2018-12-21T05:54:05.145Z,10.08
2018-12-21T05:59:09.506Z,10.11
2018-12-21T06:04:12.691Z,10.17
2018-12-21T06:09:16.115Z,10.18
2018-12-21T06:20:34.689Z,10.26
2018-12-21T06:31:10.292Z,10.37
2018-12-21T06:36:13.252Z,10.43
2018-12-21T06:41:16.241Z,10.43
2018-12-21T06:46:19.222Z,10.45
2018-12-21T06:51:22.258Z,10.44
2018-12-21T06:56:25.221Z,10.45
2018-12-21T07:01:28.512Z,10.47
2018-12-21T07:06:31.508Z,10.43
2018-12-21T07:11:34.515Z,10.40
2018-12-21T07:16:37.514Z,10.29
2018-12-21T07:21:40.508Z,10.24
2018-12-21T07:26:43.486Z,10.11
2018-12-21T07:31:46.631Z,10.10
2018-12-21T07:36:49.684Z,10.11
2018-12-21T07:41:52.656Z,10.13
2018-12-21T07:46:55.649Z,10.15
2018-12-21T07:51:58.880Z,10.17
2018-12-21T07:57:02.145Z,10.18
2018-12-21T08:02:05.649Z,10.20
2018-12-21T08:07:08.656Z,10.22
2018-12-21T08:12:11.636Z,10.23
2018-12-21T08:17:21.440Z,10.30
2018-12-21T08:27:44.255Z,10.35
2018-12-21T08:32:48.051Z,10.34
2018-12-21T08:37:53.303Z,10.36
2018-12-21T08:42:57.203Z,10.40
2018-12-21T08:48:00.857Z,10.37
2018-12-21T08:53:04.640Z,10.36
2018-12-21T08:58:07.933Z,10.46
2018-12-21T09:03:10.919Z,10.47
2018-12-21T09:08:14.001Z,10.46
2018-12-21T09:13:17.308Z,10.42
2018-12-21T09:18:20.403Z,10.42
2018-12-21T09:23:23.804Z,10.38
2018-12-21T09:28:27.004Z,10.39
2018-12-21T09:33:30.122Z,10.42
2018-12-21T09:38:33.236Z,10.51
2018-12-21T09:43:36.233Z,10.49
2018-12-21T09:48:39.324Z,10.43
2018-12-21T09:53:42.400Z,10.45
2018-12-21T09:58:45.493Z,10.52
2018-12-21T10:09:09.366Z,10.56
2018-12-21T10:14:20.798Z,10.66
2018-12-21T10:24:39.364Z,10.70
2018-12-21T10:29:42.332Z,10.67
2018-12-21T10:34:45.388Z,10.77
2018-12-21T10:39:48.334Z,10.79
2018-12-21T10:44:51.393Z,10.82
2018-12-21T10:49:54.439Z,10.91
2018-12-21T11:00:17.085Z,10.95
2018-12-21T11:10:40.238Z,11.05
2018-12-21T11:15:43.245Z,11.00
2018-12-21T11:20:46.657Z,11.00
2018-12-21T11:25:49.792Z,11.10
2018-12-21T11:30:52.823Z,11.14
2018-12-21T11:35:55.859Z,11.10
2018-12-21T11:40:58.885Z,11.05
2018-12-21T11:51:22.431Z,11.13
2018-12-21T11:56:26.985Z,11.16
2018-12-21T12:01:31.298Z,11.15
2018-12-21T12:06:40.332Z,11.09
2018-12-21T12:11:45.128Z,10.97
2018-12-21T12:16:49.814Z,11.12
2018-12-21T12:21:53.660Z,11.10
2018-12-21T12:27:06.202Z,11.24
2018-12-21T12:32:13.944Z,11.34
2018-12-21T12:53:48.418Z,11.56
2018-12-21T12:58:52.959Z,11.60
2018-12-21T13:03:59.259Z,11.67
2018-12-21T13:09:10.186Z,11.78
2018-12-21T13:14:16.632Z,11.85
2018-12-21T13:24:56.187Z,11.98
2018-12-21T18:09:10.224Z,12.11
2018-12-21T18:14:13.254Z,12.88
2018-12-21T18:19:16.675Z,12.66
2018-12-21T18:42:51.880Z,12.84
2018-12-21T18:47:55.140Z,12.68
2018-12-21T18:52:58.173Z,12.71
2018-12-21T18:58:01.319Z,12.67
2018-12-21T19:03:04.599Z,12.76
2018-12-21T19:08:07.583Z,12.66
2018-12-21T19:13:10.793Z,12.68
2018-12-21T19:18:13.985Z,12.57
2018-12-21T19:23:17.152Z,12.54
2018-12-21T19:28:20.177Z,12.56
2018-12-21T19:33:23.228Z,12.49
2018-12-21T19:38:26.283Z,12.50
2018-12-21T19:43:29.309Z,12.59
2018-12-21T19:48:32.357Z,12.61
2018-12-21T19:53:35.392Z,12.59
2018-12-21T19:58:38.394Z,12.63
2018-12-21T20:03:41.563Z,12.80
2018-12-21T20:08:44.569Z,12.82
2018-12-21T20:13:47.611Z,12.84
2018-12-21T20:18:50.718Z,12.89
2018-12-21T20:23:53.858Z,12.80
2018-12-21T20:28:56.962Z,12.77
2018-12-21T20:34:00.097Z,12.82
2018-12-21T20:39:08.913Z,12.75
2018-12-21T20:44:12.026Z,12.70
2018-12-21T20:49:15.056Z,12.73
2018-12-21T20:54:18.198Z,12.66
2018-12-21T20:59:23.484Z,12.72
2018-12-21T21:04:26.587Z,12.80
2018-12-21T21:09:29.665Z,12.72
2018-12-21T21:14:39.325Z,12.79
2018-12-21T21:19:42.333Z,12.67
2018-12-21T21:30:14.421Z,12.28
2018-12-21T21:35:17.465Z,12.12
2018-12-21T21:40:20.488Z,12.17
2018-12-21T21:50:48.189Z,12.37
2018-12-21T21:55:51.288Z,12.34
2018-12-21T22:00:54.323Z,12.09
2018-12-21T22:05:57.448Z,11.95
2018-12-21T22:11:02.072Z,11.80
2018-12-21T22:16:05.400Z,11.67
2018-12-21T22:21:08.400Z,11.53
2018-12-21T22:26:11.392Z,11.46
2018-12-21T22:36:39.021Z,11.46
2018-12-21T22:41:42.080Z,11.51
2018-12-21T22:46:45.132Z,11.57
2018-12-21T22:51:48.174Z,11.46
2018-12-21T22:56:51.241Z,11.54
2018-12-21T23:01:54.501Z,11.54
2018-12-21T23:06:57.490Z,11.55
2018-12-21T23:12:00.605Z,11.54
2018-12-21T23:17:03.753Z,11.55
2018-12-21T23:22:08.008Z,11.49
2018-12-21T23:27:11.137Z,11.50
2018-12-21T23:32:14.104Z,11.42
2018-12-21T23:37:17.149Z,11.42
2018-12-21T23:42:20.291Z,11.37
2018-12-21T23:47:23.362Z,11.43
2018-12-21T23:52:26.384Z,11.36
2018-12-21T23:57:29.396Z,11.43
